sensor_id;sensor_type;location;lat;lon;timestamp;pressure;altitude;pressure_sealevel;temperature;humidity
72942;BME280;69665;55.822;37.330;2023-05-22T00:02:13;100202.97;;;11.53;52.16
72942;BME280;69665;55.822;37.330;2023-05-22T00:04:39;100190.91;;;11.46;52.58
72942;BME280;69665;55.822;37.330;2023-05-22T00:07:04;100205.47;;;11.57;52.75
72942;BME280;69665;55.822;37.330;2023-05-22T00:09:31;100192.94;;;11.64;52.50
72942;BME280;69665;55.822;37.330;2023-05-22T00:11:56;100204.72;;;11.80;52.69
72942;BME280;69665;55.822;37.330;2023-05-22T00:14:22;100193.22;;;11.83;52.41
72942;BME280;69665;55.822;37.330;2023-05-22T00:16:48;100195.34;;;11.97;51.88
72942;BME280;69665;55.822;37.330;2023-05-22T00:19:14;100206.72;;;11.99;51.98
72942;BME280;69665;55.822;37.330;2023-05-22T00:21:44;100208.44;;;12.00;52.17
72942;BME280;69665;55.822;37.330;2023-05-22T00:24:11;100203.34;;;11.95;51.96
72942;BME280;69665;55.822;37.330;2023-05-22T00:26:37;100213.72;;;12.00;51.51
72942;BME280;69665;55.822;37.330;2023-05-22T00:29:03;100206.56;;;12.03;51.82
72942;BME280;69665;55.822;37.330;2023-05-22T00:31:30;100202.16;;;12.04;51.77
72942;BME280;69665;55.822;37.330;2023-05-22T00:33:57;100211.53;;;12.12;51.61
72942;BME280;69665;55.822;37.330;2023-05-22T00:36:23;100187.22;;;12.03;51.44
72942;BME280;69665;55.822;37.330;2023-05-22T00:38:48;100206.06;;;12.18;51.51
72942;BME280;69665;55.822;37.330;2023-05-22T00:41:14;100216.22;;;12.29;51.53
72942;BME280;69665;55.822;37.330;2023-05-22T00:43:40;100196.47;;;12.16;51.51
72942;BME280;69665;55.822;37.330;2023-05-22T00:46:06;100207.38;;;12.30;51.28
72942;BME280;69665;55.822;37.330;2023-05-22T00:48:32;100229.03;;;12.40;51.21
72942;BME280;69665;55.822;37.330;2023-05-22T00:50:59;100227.31;;;12.39;50.94
72942;BME280;69665;55.822;37.330;2023-05-22T00:53:27;100213.47;;;12.32;51.45
72942;BME280;69665;55.822;37.330;2023-05-22T00:55:53;100219.28;;;12.42;50.68
72942;BME280;69665;55.822;37.330;2023-05-22T00:58:19;100227.22;;;12.42;51.30
72942;BME280;69665;55.822;37.330;2023-05-22T01:00:46;100217.66;;;12.38;51.50
72942;BME280;69665;55.822;37.330;2023-05-22T01:03:11;100223.59;;;12.44;51.45
72942;BME280;69665;55.822;37.330;2023-05-22T01:05:38;100191.38;;;12.35;51.62
72942;BME280;69665;55.822;37.330;2023-05-22T01:08:07;100193.03;;;12.37;51.95
72942;BME280;69665;55.822;37.330;2023-05-22T01:10:35;100175.69;;;12.30;51.80
72942;BME280;69665;55.822;37.330;2023-05-22T01:16:16;100209.41;;;12.47;52.59
72942;BME280;69665;55.822;37.330;2023-05-22T01:19:13;100194.81;;;12.37;52.60
72942;BME280;69665;55.822;37.330;2023-05-22T01:22:11;100197.19;;;12.44;52.60
72942;BME280;69665;55.822;37.330;2023-05-22T01:25:05;100212.84;;;12.49;52.89
72942;BME280;69665;55.822;37.330;2023-05-22T01:32:33;100226.91;;;12.49;51.09
72942;BME280;69665;55.822;37.330;2023-05-22T01:35:00;100176.59;;;12.29;47.64
72942;BME280;69665;55.822;37.330;2023-05-22T01:37:29;100190.41;;;12.37;45.16
72942;BME280;69665;55.822;37.330;2023-05-22T01:39:55;100186.19;;;12.32;45.69
72942;BME280;69665;55.822;37.330;2023-05-22T01:42:22;100194.66;;;12.41;46.79
72942;BME280;69665;55.822;37.330;2023-05-22T01:44:48;100200.50;;;12.49;46.30
72942;BME280;69665;55.822;37.330;2023-05-22T01:47:14;100203.13;;;12.49;47.73
72942;BME280;69665;55.822;37.330;2023-05-22T01:49:40;100196.22;;;12.47;49.63
72942;BME280;69665;55.822;37.330;2023-05-22T01:52:23;100204.59;;;12.58;50.71
72942;BME280;69665;55.822;37.330;2023-05-22T01:54:57;100206.25;;;12.61;47.99
72942;BME280;69665;55.822;37.330;2023-05-22T02:00:12;100173.09;;;12.52;48.26
72942;BME280;69665;55.822;37.330;2023-05-22T02:02:45;100205.91;;;12.70;49.69
72942;BME280;69665;55.822;37.330;2023-05-22T02:05:15;100214.66;;;12.72;48.12
72942;BME280;69665;55.822;37.330;2023-05-22T02:07:44;100213.22;;;12.63;48.48
72942;BME280;69665;55.822;37.330;2023-05-22T02:10:11;100202.81;;;12.58;46.96
72942;BME280;69665;55.822;37.330;2023-05-22T02:12:38;100197.78;;;12.51;47.50
72942;BME280;69665;55.822;37.330;2023-05-22T02:15:04;100192.56;;;12.49;47.74
72942;BME280;69665;55.822;37.330;2023-05-22T02:17:39;100212.47;;;12.60;49.18
72942;BME280;69665;55.822;37.330;2023-05-22T02:20:09;100208.94;;;12.59;48.05
72942;BME280;69665;55.822;37.330;2023-05-22T02:22:46;100203.78;;;12.56;49.55
72942;BME280;69665;55.822;37.330;2023-05-22T02:25:12;100191.97;;;12.43;49.09
72942;BME280;69665;55.822;37.330;2023-05-22T02:27:41;100201.56;;;12.45;49.56
72942;BME280;69665;55.822;37.330;2023-05-22T02:30:11;100192.13;;;12.38;48.54
72942;BME280;69665;55.822;37.330;2023-05-22T02:32:39;100205.22;;;12.41;49.14
72942;BME280;69665;55.822;37.330;2023-05-22T02:35:05;100207.09;;;12.38;48.42
72942;BME280;69665;55.822;37.330;2023-05-22T02:37:31;100203.72;;;12.34;49.53
72942;BME280;69665;55.822;37.330;2023-05-22T02:39:57;100208.22;;;12.31;49.90
72942;BME280;69665;55.822;37.330;2023-05-22T02:42:23;100201.38;;;12.25;50.41
72942;BME280;69665;55.822;37.330;2023-05-22T02:44:49;100192.72;;;12.21;50.91
72942;BME280;69665;55.822;37.330;2023-05-22T02:47:14;100208.28;;;12.29;50.50
72942;BME280;69665;55.822;37.330;2023-05-22T02:49:40;100213.31;;;12.37;50.96
72942;BME280;69665;55.822;37.330;2023-05-22T02:52:06;100224.50;;;12.43;50.92
72942;BME280;69665;55.822;37.330;2023-05-22T02:54:31;100202.31;;;12.47;50.97
72942;BME280;69665;55.822;37.330;2023-05-22T02:56:57;100224.41;;;12.70;51.10
72942;BME280;69665;55.822;37.330;2023-05-22T02:59:22;100219.84;;;12.73;50.54
72942;BME280;69665;55.822;37.330;2023-05-22T03:01:49;100210.66;;;12.83;50.45
72942;BME280;69665;55.822;37.330;2023-05-22T03:04:15;100221.53;;;12.99;50.31
72942;BME280;69665;55.822;37.330;2023-05-22T03:06:40;100223.63;;;13.13;49.71
72942;BME280;69665;55.822;37.330;2023-05-22T03:09:06;100227.34;;;13.31;49.62
72942;BME280;69665;55.822;37.330;2023-05-22T03:11:33;100210.25;;;13.39;49.36
72942;BME280;69665;55.822;37.330;2023-05-22T03:13:59;100228.47;;;13.69;49.14
72942;BME280;69665;55.822;37.330;2023-05-22T03:16:25;100237.28;;;13.89;49.37
72942;BME280;69665;55.822;37.330;2023-05-22T03:19:15;100194.66;;;13.96;49.42
72942;BME280;69665;55.822;37.330;2023-05-22T03:21:41;100215.47;;;14.25;48.02
72942;BME280;69665;55.822;37.330;2023-05-22T03:24:11;100225.44;;;14.39;47.24
72942;BME280;69665;55.822;37.330;2023-05-22T03:26:37;100239.53;;;14.59;46.02
72942;BME280;69665;55.822;37.330;2023-05-22T03:29:06;100231.25;;;14.67;45.17
72942;BME280;69665;55.822;37.330;2023-05-22T03:31:33;100235.84;;;14.82;46.62
72942;BME280;69665;55.822;37.330;2023-05-22T03:34:18;100224.97;;;14.88;46.25
72942;BME280;69665;55.822;37.330;2023-05-22T03:36:46;100195.00;;;14.86;46.18
72942;BME280;69665;55.822;37.330;2023-05-22T03:39:14;100204.97;;;15.19;45.41
72942;BME280;69665;55.822;37.330;2023-05-22T03:41:48;100220.00;;;15.56;45.27
72942;BME280;69665;55.822;37.330;2023-05-22T03:44:14;100201.66;;;15.69;44.24
72942;BME280;69665;55.822;37.330;2023-05-22T03:46:41;100205.41;;;15.99;45.23
72942;BME280;69665;55.822;37.330;2023-05-22T03:49:07;100210.34;;;16.57;44.17
72942;BME280;69665;55.822;37.330;2023-05-22T03:51:32;100184.22;;;17.44;43.69
72942;BME280;69665;55.822;37.330;2023-05-22T03:53:59;100202.69;;;19.08;41.65
72942;BME280;69665;55.822;37.330;2023-05-22T03:56:24;100192.09;;;20.26;40.22
72942;BME280;69665;55.822;37.330;2023-05-22T03:58:50;100203.47;;;20.43;39.00
72942;BME280;69665;55.822;37.330;2023-05-22T04:01:16;100209.56;;;20.57;38.23
72942;BME280;69665;55.822;37.330;2023-05-22T04:03:42;100219.78;;;20.13;37.12
72942;BME280;69665;55.822;37.330;2023-05-22T04:06:09;100209.50;;;20.07;37.30
72942;BME280;69665;55.822;37.330;2023-05-22T04:08:38;100215.44;;;20.37;37.05
72942;BME280;69665;55.822;37.330;2023-05-22T04:11:04;100215.50;;;21.48;36.59
72942;BME280;69665;55.822;37.330;2023-05-22T04:13:29;100196.13;;;22.94;35.62
72942;BME280;69665;55.822;37.330;2023-05-22T04:15:55;100197.94;;;23.27;35.03
72942;BME280;69665;55.822;37.330;2023-05-22T04:18:21;100218.69;;;23.25;34.37
72942;BME280;69665;55.822;37.330;2023-05-22T04:20:47;100203.75;;;23.55;34.06
72942;BME280;69665;55.822;37.330;2023-05-22T04:23:17;100198.44;;;23.96;33.59
72942;BME280;69665;55.822;37.330;2023-05-22T04:25:43;100213.41;;;23.89;33.89
72942;BME280;69665;55.822;37.330;2023-05-22T04:28:08;100210.22;;;23.52;33.75
72942;BME280;69665;55.822;37.330;2023-05-22T04:30:34;100209.56;;;23.06;34.16
72942;BME280;69665;55.822;37.330;2023-05-22T04:33:02;100228.28;;;22.85;34.28
72942;BME280;69665;55.822;37.330;2023-05-22T04:35:30;100227.19;;;22.30;34.33
72942;BME280;69665;55.822;37.330;2023-05-22T04:37:58;100227.09;;;21.84;34.82
72942;BME280;69665;55.822;37.330;2023-05-22T04:40:27;100234.88;;;21.28;35.14
72942;BME280;69665;55.822;37.330;2023-05-22T04:42:58;100233.44;;;20.73;35.63
72942;BME280;69665;55.822;37.330;2023-05-22T04:45:29;100221.59;;;20.12;36.11
72942;BME280;69665;55.822;37.330;2023-05-22T04:47:57;100238.94;;;19.53;36.39
72942;BME280;69665;55.822;37.330;2023-05-22T04:50:30;100238.66;;;18.88;37.03
72942;BME280;69665;55.822;37.330;2023-05-22T04:52:57;100251.47;;;18.39;38.14
72942;BME280;69665;55.822;37.330;2023-05-22T04:55:30;100244.50;;;17.92;38.31
72942;BME280;69665;55.822;37.330;2023-05-22T04:57:58;100244.94;;;17.69;40.47
72942;BME280;69665;55.822;37.330;2023-05-22T05:00:24;100248.72;;;17.49;39.11
72942;BME280;69665;55.822;37.330;2023-05-22T05:02:53;100240.06;;;17.29;39.80
72942;BME280;69665;55.822;37.330;2023-05-22T05:05:19;100238.94;;;17.02;39.78
72942;BME280;69665;55.822;37.330;2023-05-22T05:07:46;100247.50;;;16.91;40.81
72942;BME280;69665;55.822;37.330;2023-05-22T05:10:12;100256.00;;;16.82;40.43
72942;BME280;69665;55.822;37.330;2023-05-22T05:12:38;100250.22;;;16.74;40.88
72942;BME280;69665;55.822;37.330;2023-05-22T05:15:04;100250.53;;;16.68;41.38
72942;BME280;69665;55.822;37.330;2023-05-22T05:17:31;100243.28;;;16.54;41.21
72942;BME280;69665;55.822;37.330;2023-05-22T05:19:56;100245.06;;;16.54;42.14
72942;BME280;69665;55.822;37.330;2023-05-22T05:22:22;100241.78;;;16.49;41.79
72942;BME280;69665;55.822;37.330;2023-05-22T05:24:48;100229.16;;;16.37;41.92
72942;BME280;69665;55.822;37.330;2023-05-22T05:27:16;100244.53;;;16.47;42.18
72942;BME280;69665;55.822;37.330;2023-05-22T05:29:43;100243.34;;;16.53;42.14
72942;BME280;69665;55.822;37.330;2023-05-22T05:32:16;100227.00;;;16.43;42.62
72942;BME280;69665;55.822;37.330;2023-05-22T05:34:49;100232.00;;;16.49;42.20
72942;BME280;69665;55.822;37.330;2023-05-22T05:37:21;100225.22;;;16.44;42.67
72942;BME280;69665;55.822;37.330;2023-05-22T05:39:48;100224.84;;;16.34;42.59
72942;BME280;69665;55.822;37.330;2023-05-22T05:42:14;100209.16;;;16.12;44.07
72942;BME280;69665;55.822;37.330;2023-05-22T05:44:42;100219.72;;;15.97;44.10
72942;BME280;69665;55.822;37.330;2023-05-22T05:47:07;100214.84;;;15.87;44.69
72942;BME280;69665;55.822;37.330;2023-05-22T05:49:37;100223.16;;;15.81;44.74
72942;BME280;69665;55.822;37.330;2023-05-22T05:52:04;100224.03;;;15.63;43.75
72942;BME280;69665;55.822;37.330;2023-05-22T05:54:32;100215.56;;;15.19;45.97
72942;BME280;69665;55.822;37.330;2023-05-22T05:57:03;100234.44;;;14.94;46.36
72942;BME280;69665;55.822;37.330;2023-05-22T05:59:28;100246.03;;;14.73;48.97
72942;BME280;69665;55.822;37.330;2023-05-22T06:02:14;100264.53;;;14.74;50.30
72942;BME280;69665;55.822;37.330;2023-05-22T06:04:41;100254.66;;;14.57;50.12
72942;BME280;69665;55.822;37.330;2023-05-22T06:07:08;100284.22;;;14.69;50.75
72942;BME280;69665;55.822;37.330;2023-05-22T06:09:44;100282.56;;;14.66;51.46
72942;BME280;69665;55.822;37.330;2023-05-22T06:12:20;100281.16;;;14.78;51.45
72942;BME280;69665;55.822;37.330;2023-05-22T06:14:46;100276.53;;;14.81;52.24
72942;BME280;69665;55.822;37.330;2023-05-22T06:17:14;100260.41;;;14.67;52.78
72942;BME280;69665;55.822;37.330;2023-05-22T06:19:41;100262.47;;;14.60;52.75
72942;BME280;69665;55.822;37.330;2023-05-22T06:22:07;100263.09;;;14.47;51.79
72942;BME280;69665;55.822;37.330;2023-05-22T06:24:36;100248.63;;;14.34;55.73
72942;BME280;69665;55.822;37.330;2023-05-22T06:27:09;100217.03;;;14.09;56.23
72942;BME280;69665;55.822;37.330;2023-05-22T06:29:35;100265.78;;;14.25;54.44
72942;BME280;69665;55.822;37.330;2023-05-22T06:32:00;100263.53;;;14.16;55.06
72942;BME280;69665;55.822;37.330;2023-05-22T06:34:27;100254.19;;;14.07;56.00
72942;BME280;69665;55.822;37.330;2023-05-22T06:36:55;100274.97;;;14.16;56.54
72942;BME280;69665;55.822;37.330;2023-05-22T06:39:25;100250.94;;;14.01;54.25
72942;BME280;69665;55.822;37.330;2023-05-22T06:42:04;100265.44;;;14.12;57.04
72942;BME280;69665;55.822;37.330;2023-05-22T06:44:50;100263.47;;;14.17;56.46
72942;BME280;69665;55.822;37.330;2023-05-22T06:47:16;100256.06;;;14.25;55.43
72942;BME280;69665;55.822;37.330;2023-05-22T06:49:41;100245.47;;;14.25;55.72
72942;BME280;69665;55.822;37.330;2023-05-22T06:52:07;100258.84;;;14.43;56.80
72942;BME280;69665;55.822;37.330;2023-05-22T06:54:34;100262.16;;;14.48;57.72
72942;BME280;69665;55.822;37.330;2023-05-22T06:57:01;100261.75;;;14.57;57.39
72942;BME280;69665;55.822;37.330;2023-05-22T06:59:29;100252.00;;;14.57;55.40
72942;BME280;69665;55.822;37.330;2023-05-22T07:02:03;100208.72;;;14.57;54.40
72942;BME280;69665;55.822;37.330;2023-05-22T07:04:58;100223.22;;;14.69;55.35
72942;BME280;69665;55.822;37.330;2023-05-22T07:07:32;100238.88;;;14.75;57.15
72942;BME280;69665;55.822;37.330;2023-05-22T07:09:57;100223.09;;;14.72;58.13
72942;BME280;69665;55.822;37.330;2023-05-22T07:12:23;100256.06;;;14.85;58.03
72942;BME280;69665;55.822;37.330;2023-05-22T07:14:51;100266.66;;;14.85;58.30
72942;BME280;69665;55.822;37.330;2023-05-22T07:17:17;100271.41;;;14.78;58.77
72942;BME280;69665;55.822;37.330;2023-05-22T07:19:46;100248.75;;;14.71;58.95
72942;BME280;69665;55.822;37.330;2023-05-22T07:22:13;100232.19;;;14.85;58.19
72942;BME280;69665;55.822;37.330;2023-05-22T07:24:41;100231.22;;;15.06;59.47
72942;BME280;69665;55.822;37.330;2023-05-22T07:27:07;100240.38;;;15.18;58.88
72942;BME280;69665;55.822;37.330;2023-05-22T07:29:34;100257.09;;;15.20;59.62
72942;BME280;69665;55.822;37.330;2023-05-22T07:32:02;100282.09;;;15.14;58.86
72942;BME280;69665;55.822;37.330;2023-05-22T07:34:29;100316.44;;;14.99;57.72
72942;BME280;69665;55.822;37.330;2023-05-22T07:37:06;100313.94;;;14.96;59.87
72942;BME280;69665;55.822;37.330;2023-05-22T07:39:32;100272.88;;;15.04;60.01
72942;BME280;69665;55.822;37.330;2023-05-22T07:41:58;100244.09;;;15.14;59.71
72942;BME280;69665;55.822;37.330;2023-05-22T07:44:25;100257.56;;;15.09;59.22
72942;BME280;69665;55.822;37.330;2023-05-22T07:46:50;100277.44;;;15.01;59.34
72942;BME280;69665;55.822;37.330;2023-05-22T07:49:20;100255.38;;;15.00;60.34
72942;BME280;69665;55.822;37.330;2023-05-22T07:51:48;100254.72;;;15.14;61.12
72942;BME280;69665;55.822;37.330;2023-05-22T07:54:15;100286.34;;;15.18;60.69
72942;BME280;69665;55.822;37.330;2023-05-22T07:56:44;100310.56;;;15.11;61.67
72942;BME280;69665;55.822;37.330;2023-05-22T07:59:11;100275.00;;;14.96;61.06
72942;BME280;69665;55.822;37.330;2023-05-22T08:01:37;100274.22;;;15.13;61.74
72942;BME280;69665;55.822;37.330;2023-05-22T08:04:04;100254.50;;;15.18;61.51
72942;BME280;69665;55.822;37.330;2023-05-22T08:06:30;100274.44;;;15.08;62.19
72942;BME280;69665;55.822;37.330;2023-05-22T08:08:55;100275.72;;;15.18;61.98
72942;BME280;69665;55.822;37.330;2023-05-22T08:11:21;100285.41;;;15.19;62.88
72942;BME280;69665;55.822;37.330;2023-05-22T08:13:47;100261.09;;;15.47;62.35
72942;BME280;69665;55.822;37.330;2023-05-22T08:16:12;100251.25;;;15.85;61.59
72942;BME280;69665;55.822;37.330;2023-05-22T08:18:38;100226.41;;;15.86;62.91
72942;BME280;69665;55.822;37.330;2023-05-22T08:21:04;100282.81;;;15.91;62.66
72942;BME280;69665;55.822;37.330;2023-05-22T08:23:30;100322.66;;;15.74;62.11
72942;BME280;69665;55.822;37.330;2023-05-22T08:25:56;100324.31;;;15.58;61.75
72942;BME280;69665;55.822;37.330;2023-05-22T08:28:22;100305.28;;;15.48;62.12
72942;BME280;69665;55.822;37.330;2023-05-22T08:30:47;100300.03;;;15.47;62.41
72942;BME280;69665;55.822;37.330;2023-05-22T08:33:13;100303.13;;;15.38;62.59
72942;BME280;69665;55.822;37.330;2023-05-22T08:35:39;100302.56;;;15.31;62.31
72942;BME280;69665;55.822;37.330;2023-05-22T08:38:04;100294.81;;;15.26;62.70
72942;BME280;69665;55.822;37.330;2023-05-22T08:40:34;100294.09;;;15.42;63.54
72942;BME280;69665;55.822;37.330;2023-05-22T08:43:04;100283.56;;;15.59;62.62
72942;BME280;69665;55.822;37.330;2023-05-22T08:45:34;100309.78;;;15.84;62.45
72942;BME280;69665;55.822;37.330;2023-05-22T08:48:03;100299.25;;;16.00;65.18
72942;BME280;69665;55.822;37.330;2023-05-22T08:50:33;100289.75;;;16.30;62.65
72942;BME280;69665;55.822;37.330;2023-05-22T08:53:01;100283.47;;;16.66;64.85
72942;BME280;69665;55.822;37.330;2023-05-22T08:55:28;100259.59;;;16.64;60.00
72942;BME280;69665;55.822;37.330;2023-05-22T08:57:55;100266.19;;;16.90;60.34
72942;BME280;69665;55.822;37.330;2023-05-22T09:00:21;100263.75;;;17.18;59.96
72942;BME280;69665;55.822;37.330;2023-05-22T09:02:48;100263.84;;;17.48;60.14
72942;BME280;69665;55.822;37.330;2023-05-22T09:05:15;100265.59;;;17.95;60.53
72942;BME280;69665;55.822;37.330;2023-05-22T09:07:42;100251.16;;;18.29;59.77
72942;BME280;69665;55.822;37.330;2023-05-22T09:10:08;100245.88;;;18.13;55.40
72942;BME280;69665;55.822;37.330;2023-05-22T09:12:33;100246.25;;;18.07;57.50
72942;BME280;69665;55.822;37.330;2023-05-22T09:15:15;100251.66;;;18.06;57.13
72942;BME280;69665;55.822;37.330;2023-05-22T09:17:44;100244.69;;;18.19;56.72
72942;BME280;69665;55.822;37.330;2023-05-22T09:20:13;100239.84;;;18.54;57.67
72942;BME280;69665;55.822;37.330;2023-05-22T09:22:40;100216.94;;;18.80;55.70
72942;BME280;69665;55.822;37.330;2023-05-22T09:25:05;100255.94;;;18.96;54.64
72942;BME280;69665;55.822;37.330;2023-05-22T09:27:32;100252.94;;;19.01;54.72
72942;BME280;69665;55.822;37.330;2023-05-22T09:29:58;100255.03;;;19.10;54.30
72942;BME280;69665;55.822;37.330;2023-05-22T09:32:28;100246.56;;;19.04;55.03
72942;BME280;69665;55.822;37.330;2023-05-22T09:35:01;100253.22;;;19.11;55.34
72942;BME280;69665;55.822;37.330;2023-05-22T09:37:32;100246.09;;;19.52;54.90
72942;BME280;69665;55.822;37.330;2023-05-22T09:40:03;100251.00;;;19.73;54.29
72942;BME280;69665;55.822;37.330;2023-05-22T09:42:32;100250.28;;;19.83;53.41
72942;BME280;69665;55.822;37.330;2023-05-22T09:45:04;100241.66;;;19.92;53.12
72942;BME280;69665;55.822;37.330;2023-05-22T09:47:31;100235.91;;;20.11;52.43
72942;BME280;69665;55.822;37.330;2023-05-22T09:50:03;100254.56;;;20.25;53.42
72942;BME280;69665;55.822;37.330;2023-05-22T09:52:33;100241.13;;;20.40;52.00
72942;BME280;69665;55.822;37.330;2023-05-22T09:55:02;100222.84;;;20.46;51.48
72942;BME280;69665;55.822;37.330;2023-05-22T09:57:32;100238.75;;;20.86;51.02
72942;BME280;69665;55.822;37.330;2023-05-22T10:00:03;100246.22;;;21.19;50.51
72942;BME280;69665;55.822;37.330;2023-05-22T10:02:39;100239.88;;;21.20;49.78
72942;BME280;69665;55.822;37.330;2023-05-22T10:05:07;100236.91;;;21.24;49.75
72942;BME280;69665;55.822;37.330;2023-05-22T10:07:35;100244.75;;;21.51;49.99
72942;BME280;69665;55.822;37.330;2023-05-22T10:10:07;100244.41;;;21.80;49.86
72942;BME280;69665;55.822;37.330;2023-05-22T10:12:40;100226.81;;;21.99;49.56
72942;BME280;69665;55.822;37.330;2023-05-22T10:15:09;100247.47;;;22.34;48.96
72942;BME280;69665;55.822;37.330;2023-05-22T10:17:35;100230.03;;;22.62;48.62
72942;BME280;69665;55.822;37.330;2023-05-22T10:20:02;100224.44;;;22.76;47.75
72942;BME280;69665;55.822;37.330;2023-05-22T10:22:30;100221.75;;;22.76;48.10
72942;BME280;69665;55.822;37.330;2023-05-22T10:24:57;100217.25;;;23.10;47.92
72942;BME280;69665;55.822;37.330;2023-05-22T10:27:24;100220.53;;;23.25;47.27
72942;BME280;69665;55.822;37.330;2023-05-22T10:33:20;100221.34;;;23.59;47.32
72942;BME280;69665;55.822;37.330;2023-05-22T10:35:50;100215.13;;;23.90;46.65
72942;BME280;69665;55.822;37.330;2023-05-22T10:41:10;100211.63;;;23.99;45.60
72942;BME280;69665;55.822;37.330;2023-05-22T10:43:43;100224.09;;;24.00;45.13
72942;BME280;69665;55.822;37.330;2023-05-22T10:46:12;100230.66;;;23.87;45.06
72942;BME280;69665;55.822;37.330;2023-05-22T10:48:40;100223.91;;;23.60;45.08
72942;BME280;69665;55.822;37.330;2023-05-22T10:51:11;100223.81;;;23.17;45.46
72942;BME280;69665;55.822;37.330;2023-05-22T10:53:37;100220.31;;;22.94;45.82
72942;BME280;69665;55.822;37.330;2023-05-22T10:56:13;100206.75;;;22.96;46.30
72942;BME280;69665;55.822;37.330;2023-05-22T10:58:41;100215.16;;;23.14;45.90
72942;BME280;69665;55.822;37.330;2023-05-22T11:01:18;100210.38;;;23.17;45.72
72942;BME280;69665;55.822;37.330;2023-05-22T11:11:47;100208.97;;;22.80;45.17
72942;BME280;69665;55.822;37.330;2023-05-22T11:14:19;100210.38;;;22.61;45.40
72942;BME280;69665;55.822;37.330;2023-05-22T11:16:44;100200.63;;;22.60;45.44
72942;BME280;69665;55.822;37.330;2023-05-22T11:19:13;100202.09;;;22.64;45.34
72942;BME280;69665;55.822;37.330;2023-05-22T11:21:43;100196.25;;;22.59;45.20
72942;BME280;69665;55.822;37.330;2023-05-22T11:24:09;100198.16;;;22.46;45.67
72942;BME280;69665;55.822;37.330;2023-05-22T11:26:35;100203.91;;;22.53;45.50
72942;BME280;69665;55.822;37.330;2023-05-22T11:29:01;100188.41;;;22.34;45.03
72942;BME280;69665;55.822;37.330;2023-05-22T11:31:31;100186.16;;;22.06;45.46
72942;BME280;69665;55.822;37.330;2023-05-22T11:33:57;100191.88;;;22.01;45.92
72942;BME280;69665;55.822;37.330;2023-05-22T11:36:23;100193.16;;;21.95;45.32
72942;BME280;69665;55.822;37.330;2023-05-22T11:38:49;100179.69;;;21.84;45.79
72942;BME280;69665;55.822;37.330;2023-05-22T11:41:15;100190.13;;;22.00;45.65
72942;BME280;69665;55.822;37.330;2023-05-22T11:43:41;100184.69;;;22.02;45.95
72942;BME280;69665;55.822;37.330;2023-05-22T11:46:10;100187.13;;;22.05;45.80
72942;BME280;69665;55.822;37.330;2023-05-22T11:48:42;100199.06;;;22.12;46.17
72942;BME280;69665;55.822;37.330;2023-05-22T11:51:08;100188.94;;;22.04;45.44
72942;BME280;69665;55.822;37.330;2023-05-22T11:53:35;100181.53;;;22.08;45.45
72942;BME280;69665;55.822;37.330;2023-05-22T11:56:04;100183.09;;;22.10;45.76
72942;BME280;69665;55.822;37.330;2023-05-22T11:58:31;100190.44;;;22.08;45.01
72942;BME280;69665;55.822;37.330;2023-05-22T12:01:03;100181.91;;;21.90;45.87
72942;BME280;69665;55.822;37.330;2023-05-22T12:03:30;100187.16;;;21.92;44.88
72942;BME280;69665;55.822;37.330;2023-05-22T12:05:56;100173.22;;;21.76;45.43
72942;BME280;69665;55.822;37.330;2023-05-22T12:08:22;100148.41;;;21.61;45.37
72942;BME280;69665;55.822;37.330;2023-05-22T12:10:49;100167.91;;;21.63;45.75
72942;BME280;69665;55.822;37.330;2023-05-22T12:13:23;100168.75;;;21.52;46.37
72942;BME280;69665;55.822;37.330;2023-05-22T12:15:51;100180.78;;;21.47;46.01
72942;BME280;69665;55.822;37.330;2023-05-22T12:18:17;100175.28;;;21.48;46.08
72942;BME280;69665;55.822;37.330;2023-05-22T12:20:43;100168.38;;;21.57;46.08
72942;BME280;69665;55.822;37.330;2023-05-22T12:23:25;100149.91;;;21.41;46.55
72942;BME280;69665;55.822;37.330;2023-05-22T12:26:08;100172.22;;;21.42;46.46
72942;BME280;69665;55.822;37.330;2023-05-22T12:28:34;100167.19;;;21.37;46.08
72942;BME280;69665;55.822;37.330;2023-05-22T12:31:00;100161.31;;;21.32;46.27
72942;BME280;69665;55.822;37.330;2023-05-22T12:33:28;100155.78;;;21.22;46.67
72942;BME280;69665;55.822;37.330;2023-05-22T12:35:55;100156.75;;;21.21;46.58
72942;BME280;69665;55.822;37.330;2023-05-22T12:38:32;100140.88;;;21.18;47.47
72942;BME280;69665;55.822;37.330;2023-05-22T12:40:58;100129.63;;;21.13;46.59
72942;BME280;69665;55.822;37.330;2023-05-22T12:43:24;100144.75;;;21.27;46.50
72942;BME280;69665;55.822;37.330;2023-05-22T12:45:50;100151.06;;;21.26;46.32
72942;BME280;69665;55.822;37.330;2023-05-22T12:48:17;100146.22;;;21.18;46.63
72942;BME280;69665;55.822;37.330;2023-05-22T12:50:43;100133.50;;;21.09;46.70
72942;BME280;69665;55.822;37.330;2023-05-22T12:53:12;100140.06;;;21.05;48.21
72942;BME280;69665;55.822;37.330;2023-05-22T12:55:38;100140.63;;;20.97;46.29
72942;BME280;69665;55.822;37.330;2023-05-22T12:58:04;100140.03;;;20.81;46.96
72942;BME280;69665;55.822;37.330;2023-05-22T13:00:30;100123.56;;;20.75;47.59
72942;BME280;69665;55.822;37.330;2023-05-22T13:02:56;100129.88;;;20.74;47.43
72942;BME280;69665;55.822;37.330;2023-05-22T13:05:22;100127.00;;;20.77;48.07
72942;BME280;69665;55.822;37.330;2023-05-22T13:07:47;100122.38;;;20.79;47.24
72942;BME280;69665;55.822;37.330;2023-05-22T13:10:13;100119.19;;;20.74;47.71
72942;BME280;69665;55.822;37.330;2023-05-22T13:12:39;100126.19;;;20.87;47.56